sensor_id;sensor_type;location;lat;lon;timestamp;pressure;altitude;pressure_sealevel;temperature;humidity
41306;BME280;27051;50.376;19.152;2024-03-29T00:02:47;96773.73;;;10.05;58.11
41306;BME280;27051;50.376;19.152;2024-03-29T00:08:28;96782.50;;;10.22;58.13
41306;BME280;27051;50.376;19.152;2024-03-29T00:11:14;96776.13;;;10.28;58.07
41306;BME280;27051;50.376;19.152;2024-03-29T00:14:03;96777.46;;;10.17;58.01
41306;BME280;27051;50.376;19.152;2024-03-29T00:16:43;96794.06;;;10.20;58.20
41306;BME280;27051;50.376;19.152;2024-03-29T00:19:43;96810.70;;;10.26;58.13
41306;BME280;27051;50.376;19.152;2024-03-29T00:22:15;96826.01;;;10.23;58.05
41306;BME280;27051;50.376;19.152;2024-03-29T00:25:11;96832.48;;;10.18;58.07
41306;BME280;27051;50.376;19.152;2024-03-29T00:28:19;96838.88;;;10.14;58.20
41306;BME280;27051;50.376;19.152;2024-03-29T00:31:25;96839.81;;;10.16;58.37
41306;BME280;27051;50.376;19.152;2024-03-29T00:37:00;96868.50;;;10.15;58.45
41306;BME280;27051;50.376;19.152;2024-03-29T00:40:00;96876.83;;;10.13;58.66
41306;BME280;27051;50.376;19.152;2024-03-29T00:46:03;96885.60;;;9.96;58.79
41306;BME280;27051;50.376;19.152;2024-03-29T00:49:11;96882.91;;;9.84;59.20
41306;BME280;27051;50.376;19.152;2024-03-29T00:51:50;96891.11;;;9.73;59.08
41306;BME280;27051;50.376;19.152;2024-03-29T00:54:59;96892.60;;;9.64;59.17
41306;BME280;27051;50.376;19.152;2024-03-29T00:57:55;96892.42;;;9.62;59.31
41306;BME280;27051;50.376;19.152;2024-03-29T01:00:41;96905.63;;;9.64;59.69
41306;BME280;27051;50.376;19.152;2024-03-29T01:03:29;96912.01;;;9.60;59.66
41306;BME280;27051;50.376;19.152;2024-03-29T01:06:19;96916.88;;;9.52;59.58
41306;BME280;27051;50.376;19.152;2024-03-29T01:09:32;96920.60;;;9.50;59.82
41306;BME280;27051;50.376;19.152;2024-03-29T01:12:11;96928.35;;;9.51;59.68
41306;BME280;27051;50.376;19.152;2024-03-29T01:14:59;96932.20;;;9.53;59.62
41306;BME280;27051;50.376;19.152;2024-03-29T01:17:50;96939.98;;;9.50;59.59
41306;BME280;27051;50.376;19.152;2024-03-29T01:20:38;96946.39;;;9.49;59.55
41306;BME280;27051;50.376;19.152;2024-03-29T01:26:21;96961.91;;;9.41;59.72
41306;BME280;27051;50.376;19.152;2024-03-29T01:29:12;96963.89;;;9.35;59.66
41306;BME280;27051;50.376;19.152;2024-03-29T01:32:09;96971.61;;;9.34;59.70
41306;BME280;27051;50.376;19.152;2024-03-29T01:34:46;96982.73;;;9.34;59.84
41306;BME280;27051;50.376;19.152;2024-03-29T01:37:19;96992.39;;;9.36;59.84
41306;BME280;27051;50.376;19.152;2024-03-29T01:40:27;96998.29;;;9.36;59.76
41306;BME280;27051;50.376;19.152;2024-03-29T01:43:35;97007.31;;;9.30;59.94
41306;BME280;27051;50.376;19.152;2024-03-29T01:46:32;97016.38;;;9.24;60.12
41306;BME280;27051;50.376;19.152;2024-03-29T01:49:34;97015.77;;;9.10;60.12
41306;BME280;27051;50.376;19.152;2024-03-29T01:52:16;97013.69;;;9.05;60.15
41306;BME280;27051;50.376;19.152;2024-03-29T01:55:17;97018.91;;;8.98;60.18
41306;BME280;27051;50.376;19.152;2024-03-29T01:58:24;97035.64;;;8.92;60.28
41306;BME280;27051;50.376;19.152;2024-03-29T02:07:14;97062.00;;;8.82;60.47
41306;BME280;27051;50.376;19.152;2024-03-29T02:09:50;97067.34;;;8.77;60.70
41306;BME280;27051;50.376;19.152;2024-03-29T02:12:59;97073.61;;;8.65;61.10
41306;BME280;27051;50.376;19.152;2024-03-29T02:18:42;97086.19;;;8.63;61.16
41306;BME280;27051;50.376;19.152;2024-03-29T02:21:14;97088.77;;;8.58;61.04
41306;BME280;27051;50.376;19.152;2024-03-29T02:24:05;97091.98;;;8.58;60.93
41306;BME280;27051;50.376;19.152;2024-03-29T02:27:35;97096.77;;;8.53;60.73
41306;BME280;27051;50.376;19.152;2024-03-29T02:36:04;97118.17;;;8.49;60.96
41306;BME280;27051;50.376;19.152;2024-03-29T02:38:52;97118.19;;;8.46;60.88
41306;BME280;27051;50.376;19.152;2024-03-29T02:41:39;97126.22;;;8.46;61.14
41306;BME280;27051;50.376;19.152;2024-03-29T02:44:25;97134.17;;;8.42;61.12
41306;BME280;27051;50.376;19.152;2024-03-29T02:47:07;97135.27;;;8.35;61.07
41306;BME280;27051;50.376;19.152;2024-03-29T02:49:54;97141.64;;;8.33;61.16
41306;BME280;27051;50.376;19.152;2024-03-29T02:52:51;97140.55;;;8.31;61.23
41306;BME280;27051;50.376;19.152;2024-03-29T02:55:59;97147.36;;;8.35;61.16
41306;BME280;27051;50.376;19.152;2024-03-29T02:58:52;97160.19;;;8.30;60.91
41306;BME280;27051;50.376;19.152;2024-03-29T03:01:59;97166.66;;;8.33;61.19
41306;BME280;27051;50.376;19.152;2024-03-29T03:04:49;97168.68;;;8.40;61.08
41306;BME280;27051;50.376;19.152;2024-03-29T03:07:29;97165.78;;;8.40;61.07
41306;BME280;27051;50.376;19.152;2024-03-29T03:09:59;97168.11;;;8.36;61.14
41306;BME280;27051;50.376;19.152;2024-03-29T03:12:29;97170.35;;;8.34;61.05
41306;BME280;27051;50.376;19.152;2024-03-29T03:17:34;97179.89;;;8.29;61.05
41306;BME280;27051;50.376;19.152;2024-03-29T03:20:04;97189.65;;;8.25;61.08
41306;BME280;27051;50.376;19.152;2024-03-29T03:22:34;97192.55;;;8.21;61.07
41306;BME280;27051;50.376;19.152;2024-03-29T03:25:10;97196.69;;;8.19;61.12
41306;BME280;27051;50.376;19.152;2024-03-29T03:30:35;97201.21;;;8.16;61.32
41306;BME280;27051;50.376;19.152;2024-03-29T03:33:18;97197.52;;;8.15;61.13
41306;BME280;27051;50.376;19.152;2024-03-29T03:36:07;97190.42;;;8.16;61.25
41306;BME280;27051;50.376;19.152;2024-03-29T03:41:56;97187.13;;;8.15;61.07
41306;BME280;27051;50.376;19.152;2024-03-29T03:45:04;97188.57;;;8.12;61.00
41306;BME280;27051;50.376;19.152;2024-03-29T03:47:50;97189.59;;;8.10;61.25
41306;BME280;27051;50.376;19.152;2024-03-29T03:50:29;97182.11;;;8.08;61.12
41306;BME280;27051;50.376;19.152;2024-03-29T03:53:37;97178.52;;;8.05;61.09
41306;BME280;27051;50.376;19.152;2024-03-29T03:56:25;97176.63;;;7.99;61.14
41306;BME280;27051;50.376;19.152;2024-03-29T03:59:33;97181.88;;;7.98;61.13
41306;BME280;27051;50.376;19.152;2024-03-29T04:05:36;97180.92;;;7.94;61.27
41306;BME280;27051;50.376;19.152;2024-03-29T04:08:43;97176.71;;;7.85;61.21
41306;BME280;27051;50.376;19.152;2024-03-29T04:11:50;97168.88;;;7.77;61.28
41306;BME280;27051;50.376;19.152;2024-03-29T04:22:58;97173.05;;;7.67;61.50
41306;BME280;27051;50.376;19.152;2024-03-29T04:25:56;97176.86;;;7.67;61.49
41306;BME280;27051;50.376;19.152;2024-03-29T04:29:03;97174.19;;;7.71;61.40
41306;BME280;27051;50.376;19.152;2024-03-29T04:32:00;97178.45;;;7.63;61.46
41306;BME280;27051;50.376;19.152;2024-03-29T04:35:28;97188.61;;;7.60;61.62
41306;BME280;27051;50.376;19.152;2024-03-29T04:41:15;97196.39;;;7.51;61.93
41306;BME280;27051;50.376;19.152;2024-03-29T04:44:23;97208.13;;;7.45;61.99
41306;BME280;27051;50.376;19.152;2024-03-29T04:46:59;97225.58;;;7.35;62.41
41306;BME280;27051;50.376;19.152;2024-03-29T04:49:38;97237.14;;;7.36;62.28
41306;BME280;27051;50.376;19.152;2024-03-29T05:04:12;97254.95;;;7.48;62.34
41306;BME280;27051;50.376;19.152;2024-03-29T05:07:02;97256.95;;;7.53;62.37
41306;BME280;27051;50.376;19.152;2024-03-29T05:21:51;97253.84;;;7.54;62.58
41306;BME280;27051;50.376;19.152;2024-03-29T05:24:31;97260.70;;;7.59;62.62
41306;BME280;27051;50.376;19.152;2024-03-29T05:27:16;97262.87;;;7.63;62.65
41306;BME280;27051;50.376;19.152;2024-03-29T05:30:25;97273.05;;;7.67;62.74
41306;BME280;27051;50.376;19.152;2024-03-29T05:33:31;97282.48;;;7.71;62.54
41306;BME280;27051;50.376;19.152;2024-03-29T05:39:36;97310.69;;;7.84;62.50
41306;BME280;27051;50.376;19.152;2024-03-29T05:42:34;97306.27;;;7.88;62.48
41306;BME280;27051;50.376;19.152;2024-03-29T05:48:23;97319.29;;;8.02;62.37
41306;BME280;27051;50.376;19.152;2024-03-29T05:51:09;97318.55;;;8.14;62.33
41306;BME280;27051;50.376;19.152;2024-03-29T05:56:45;97326.21;;;8.33;62.15
41306;BME280;27051;50.376;19.152;2024-03-29T06:02:10;97327.59;;;8.49;61.94
41306;BME280;27051;50.376;19.152;2024-03-29T06:04:37;97332.68;;;8.63;61.98
41306;BME280;27051;50.376;19.152;2024-03-29T06:07:11;97340.20;;;8.76;61.84
41306;BME280;27051;50.376;19.152;2024-03-29T06:09:49;97340.02;;;8.90;61.77
41306;BME280;27051;50.376;19.152;2024-03-29T06:12:57;97337.17;;;9.03;61.60
41306;BME280;27051;50.376;19.152;2024-03-29T06:15:44;97336.14;;;9.14;61.22
41306;BME280;27051;50.376;19.152;2024-03-29T06:18:13;97330.88;;;9.15;61.00
41306;BME280;27051;50.376;19.152;2024-03-29T06:20:40;97326.48;;;9.21;60.96
41306;BME280;27051;50.376;19.152;2024-03-29T06:23:07;97325.00;;;9.26;60.79
41306;BME280;27051;50.376;19.152;2024-03-29T06:25:38;97325.18;;;9.34;60.76
41306;BME280;27051;50.376;19.152;2024-03-29T06:28:20;97321.11;;;9.44;60.45
41306;BME280;27051;50.376;19.152;2024-03-29T06:30:54;97315.36;;;9.54;60.32
41306;BME280;27051;50.376;19.152;2024-03-29T06:33:24;97317.84;;;9.62;59.80
41306;BME280;27051;50.376;19.152;2024-03-29T06:39:29;97317.61;;;9.78;59.52
41306;BME280;27051;50.376;19.152;2024-03-29T06:42:20;97309.40;;;9.89;59.25
41306;BME280;27051;50.376;19.152;2024-03-29T06:48:11;97309.45;;;10.19;58.72
41306;BME280;27051;50.376;19.152;2024-03-29T06:54:09;97313.78;;;10.54;58.36
41306;BME280;27051;50.376;19.152;2024-03-29T06:56:57;97316.64;;;10.73;57.71
41306;BME280;27051;50.376;19.152;2024-03-29T06:59:46;97310.46;;;10.85;57.97
41306;BME280;27051;50.376;19.152;2024-03-29T07:06:00;97317.21;;;11.24;56.35
41306;BME280;27051;50.376;19.152;2024-03-29T07:14:50;97299.63;;;11.77;56.63
41306;BME280;27051;50.376;19.152;2024-03-29T07:17:45;97302.32;;;11.94;56.30
41306;BME280;27051;50.376;19.152;2024-03-29T07:23:24;97297.61;;;12.34;54.82
41306;BME280;27051;50.376;19.152;2024-03-29T07:26:20;97295.89;;;12.40;54.70
41306;BME280;27051;50.376;19.152;2024-03-29T07:29:04;97301.05;;;12.49;53.93
41306;BME280;27051;50.376;19.152;2024-03-29T07:34:34;97317.17;;;12.68;53.50
41306;BME280;27051;50.376;19.152;2024-03-29T07:37:20;97321.15;;;12.81;52.65
41306;BME280;27051;50.376;19.152;2024-03-29T07:39:59;97327.73;;;12.94;53.00
41306;BME280;27051;50.376;19.152;2024-03-29T07:42:56;97337.60;;;13.15;53.18
41306;BME280;27051;50.376;19.152;2024-03-29T07:45:27;97340.55;;;13.36;51.31
41306;BME280;27051;50.376;19.152;2024-03-29T07:48:20;97352.13;;;13.49;50.57
41306;BME280;27051;50.376;19.152;2024-03-29T07:50:55;97352.13;;;13.60;50.63
41306;BME280;27051;50.376;19.152;2024-03-29T07:53:52;97354.59;;;13.73;50.93
41306;BME280;27051;50.376;19.152;2024-03-29T07:56:46;97353.45;;;13.89;49.61
41306;BME280;27051;50.376;19.152;2024-03-29T07:59:25;97359.41;;;13.96;49.78
41306;BME280;27051;50.376;19.152;2024-03-29T08:01:56;97354.77;;;14.06;48.77
41306;BME280;27051;50.376;19.152;2024-03-29T08:04:53;97352.14;;;14.09;48.84
41306;BME280;27051;50.376;19.152;2024-03-29T08:07:35;97351.88;;;14.18;48.57
41306;BME280;27051;50.376;19.152;2024-03-29T08:10:24;97351.89;;;14.23;48.52
41306;BME280;27051;50.376;19.152;2024-03-29T08:13:10;97351.80;;;14.19;47.91
41306;BME280;27051;50.376;19.152;2024-03-29T08:16:18;97350.95;;;14.19;48.60
41306;BME280;27051;50.376;19.152;2024-03-29T08:19:29;97349.96;;;14.27;48.32
41306;BME280;27051;50.376;19.152;2024-03-29T08:22:18;97353.73;;;14.42;47.59
41306;BME280;27051;50.376;19.152;2024-03-29T08:24:59;97358.66;;;14.59;47.96
41306;BME280;27051;50.376;19.152;2024-03-29T08:27:29;97359.48;;;14.78;46.68
41306;BME280;27051;50.376;19.152;2024-03-29T08:30:02;97360.19;;;14.94;46.71
41306;BME280;27051;50.376;19.152;2024-03-29T08:32:34;97358.41;;;15.09;46.35
41306;BME280;27051;50.376;19.152;2024-03-29T08:35:14;97358.95;;;15.30;46.27
41306;BME280;27051;50.376;19.152;2024-03-29T08:38:03;97354.67;;;15.50;46.08
41306;BME280;27051;50.376;19.152;2024-03-29T08:40:50;97353.66;;;15.71;45.80
41306;BME280;27051;50.376;19.152;2024-03-29T08:43:17;97354.65;;;15.82;45.37
41306;BME280;27051;50.376;19.152;2024-03-29T08:46:15;97354.17;;;15.88;44.67
41306;BME280;27051;50.376;19.152;2024-03-29T08:48:59;97350.41;;;15.97;44.70
41306;BME280;27051;50.376;19.152;2024-03-29T08:51:29;97353.21;;;15.96;43.32
41306;BME280;27051;50.376;19.152;2024-03-29T08:54:06;97357.33;;;15.93;43.80
41306;BME280;27051;50.376;19.152;2024-03-29T08:56:38;97365.89;;;16.05;43.97
41306;BME280;27051;50.376;19.152;2024-03-29T08:59:24;97360.95;;;16.18;42.80
41306;BME280;27051;50.376;19.152;2024-03-29T09:02:14;97352.79;;;16.25;42.13
41306;BME280;27051;50.376;19.152;2024-03-29T09:04:51;97351.63;;;16.24;41.93
41306;BME280;27051;50.376;19.152;2024-03-29T09:07:56;97362.23;;;16.26;41.84
41306;BME280;27051;50.376;19.152;2024-03-29T09:10:39;97361.27;;;16.37;41.67
41306;BME280;27051;50.376;19.152;2024-03-29T09:13:09;97356.36;;;16.53;40.77
41306;BME280;27051;50.376;19.152;2024-03-29T09:19:02;97366.70;;;16.79;39.07
41306;BME280;27051;50.376;19.152;2024-03-29T09:21:31;97365.28;;;16.95;39.68
41306;BME280;27051;50.376;19.152;2024-03-29T09:24:35;97359.12;;;17.20;39.55
41306;BME280;27051;50.376;19.152;2024-03-29T09:27:34;97361.13;;;17.74;39.44
41306;BME280;27051;50.376;19.152;2024-03-29T09:30:26;97353.52;;;18.33;39.09
41306;BME280;27051;50.376;19.152;2024-03-29T09:32:56;97354.64;;;19.05;39.24
41306;BME280;27051;50.376;19.152;2024-03-29T09:35:53;97355.65;;;19.62;37.35
41306;BME280;27051;50.376;19.152;2024-03-29T09:38:33;97350.78;;;20.07;37.47
41306;BME280;27051;50.376;19.152;2024-03-29T09:41:17;97344.96;;;20.55;37.35
41306;BME280;27051;50.376;19.152;2024-03-29T09:43:47;97347.63;;;21.10;36.25
41306;BME280;27051;50.376;19.152;2024-03-29T09:46:18;97343.20;;;21.45;35.78
41306;BME280;27051;50.376;19.152;2024-03-29T09:48:45;97344.80;;;21.56;33.97
41306;BME280;27051;50.376;19.152;2024-03-29T09:51:12;97351.72;;;21.38;33.03
41306;BME280;27051;50.376;19.152;2024-03-29T09:53:41;97354.30;;;21.28;34.00
41306;BME280;27051;50.376;19.152;2024-03-29T09:56:11;97356.11;;;21.18;32.32
41306;BME280;27051;50.376;19.152;2024-03-29T09:58:59;97362.09;;;21.03;32.70
41306;BME280;27051;50.376;19.152;2024-03-29T10:01:33;97363.34;;;21.06;32.85
41306;BME280;27051;50.376;19.152;2024-03-29T10:04:33;97352.94;;;21.10;31.85
41306;BME280;27051;50.376;19.152;2024-03-29T10:10:25;97353.55;;;21.43;33.12
41306;BME280;27051;50.376;19.152;2024-03-29T10:12:51;97354.45;;;21.81;31.74
41306;BME280;27051;50.376;19.152;2024-03-29T10:15:18;97356.57;;;21.96;31.39
41306;BME280;27051;50.376;19.152;2024-03-29T10:20:57;97354.00;;;22.18;30.84
41306;BME280;27051;50.376;19.152;2024-03-29T10:23:48;97346.43;;;22.37;30.15
41306;BME280;27051;50.376;19.152;2024-03-29T10:26:24;97342.14;;;22.74;29.76
41306;BME280;27051;50.376;19.152;2024-03-29T10:29:00;97343.65;;;23.11;28.25
41306;BME280;27051;50.376;19.152;2024-03-29T10:31:28;97340.02;;;23.36;27.81
41306;BME280;27051;50.376;19.152;2024-03-29T10:34:09;97343.33;;;23.73;26.63
41306;BME280;27051;50.376;19.152;2024-03-29T10:36:39;97333.59;;;23.94;26.42
41306;BME280;27051;50.376;19.152;2024-03-29T10:39:15;97340.13;;;24.13;25.60
41306;BME280;27051;50.376;19.152;2024-03-29T10:41:45;97337.94;;;24.43;26.03
41306;BME280;27051;50.376;19.152;2024-03-29T10:44:13;97339.54;;;24.77;25.12
41306;BME280;27051;50.376;19.152;2024-03-29T10:46:41;97330.11;;;24.99;24.72
41306;BME280;27051;50.376;19.152;2024-03-29T10:49:09;97332.11;;;25.36;24.70
41306;BME280;27051;50.376;19.152;2024-03-29T10:51:40;97327.38;;;25.75;24.43
41306;BME280;27051;50.376;19.152;2024-03-29T10:54:09;97314.63;;;26.33;24.65
41306;BME280;27051;50.376;19.152;2024-03-29T10:56:37;97321.61;;;26.93;24.65
41306;BME280;27051;50.376;19.152;2024-03-29T10:59:21;97311.09;;;27.42;23.81
41306;BME280;27051;50.376;19.152;2024-03-29T11:01:53;97298.36;;;27.96;23.76
41306;BME280;27051;50.376;19.152;2024-03-29T11:04:26;97302.33;;;28.57;22.40
41306;BME280;27051;50.376;19.152;2024-03-29T11:06:57;97307.33;;;28.67;21.87
41306;BME280;27051;50.376;19.152;2024-03-29T11:09:28;97304.38;;;28.86;21.94
41306;BME280;27051;50.376;19.152;2024-03-29T11:11:58;97304.23;;;29.01;20.07
41306;BME280;27051;50.376;19.152;2024-03-29T11:14:40;97314.56;;;29.09;20.60
41306;BME280;27051;50.376;19.152;2024-03-29T11:17:09;97309.63;;;29.23;20.40
41306;BME280;27051;50.376;19.152;2024-03-29T11:19:36;97304.65;;;29.49;20.09
41306;BME280;27051;50.376;19.152;2024-03-29T11:22:03;97295.98;;;29.90;19.68
41306;BME280;27051;50.376;19.152;2024-03-29T11:24:31;97285.38;;;30.41;19.44
41306;BME280;27051;50.376;19.152;2024-03-29T11:26:58;97274.73;;;30.69;19.58
41306;BME280;27051;50.376;19.152;2024-03-29T11:29:25;97281.63;;;31.09;18.85
41306;BME280;27051;50.376;19.152;2024-03-29T11:31:58;97279.30;;;31.18;18.52
41306;BME280;27051;50.376;19.152;2024-03-29T11:34:25;97281.48;;;31.61;18.33
41306;BME280;27051;50.376;19.152;2024-03-29T11:36:52;97275.82;;;31.99;17.83
41306;BME280;27051;50.376;19.152;2024-03-29T11:39:22;97260.67;;;32.10;18.01
41306;BME280;27051;50.376;19.152;2024-03-29T11:41:50;97257.39;;;32.73;17.64
41306;BME280;27051;50.376;19.152;2024-03-29T11:44:17;97247.82;;;33.25;17.40
41306;BME280;27051;50.376;19.152;2024-03-29T11:46:46;97241.21;;;33.86;17.11
41306;BME280;27051;50.376;19.152;2024-03-29T11:49:13;97236.34;;;34.50;17.11
41306;BME280;27051;50.376;19.152;2024-03-29T11:51:41;97229.55;;;34.89;16.66
41306;BME280;27051;50.376;19.152;2024-03-29T11:54:08;97229.91;;;35.27;16.48
41306;BME280;27051;50.376;19.152;2024-03-29T11:56:36;97224.64;;;35.98;16.23
41306;BME280;27051;50.376;19.152;2024-03-29T11:59:03;97225.98;;;36.64;14.98
41306;BME280;27051;50.376;19.152;2024-03-29T12:01:31;97216.54;;;37.02;15.04
41306;BME280;27051;50.376;19.152;2024-03-29T12:03:58;97219.02;;;37.69;14.90
41306;BME280;27051;50.376;19.152;2024-03-29T12:06:25;97217.14;;;38.24;14.70
41306;BME280;27051;50.376;19.152;2024-03-29T12:08:52;97215.38;;;38.52;13.46
41306;BME280;27051;50.376;19.152;2024-03-29T12:11:19;97213.88;;;38.62;13.71
41306;BME280;27051;50.376;19.152;2024-03-29T12:13:46;97217.61;;;39.14;13.89
41306;BME280;27051;50.376;19.152;2024-03-29T12:16:12;97209.88;;;39.46;12.85
41306;BME280;27051;50.376;19.152;2024-03-29T12:18:39;97211.28;;;39.76;12.81
41306;BME280;27051;50.376;19.152;2024-03-29T12:21:06;97205.66;;;40.13;12.65
41306;BME280;27051;50.376;19.152;2024-03-29T12:23:33;97214.00;;;40.39;12.33
41306;BME280;27051;50.376;19.152;2024-03-29T12:26:00;97209.70;;;40.36;11.38
41306;BME280;27051;50.376;19.152;2024-03-29T12:28:27;97196.36;;;40.20;10.89
41306;BME280;27051;50.376;19.152;2024-03-29T12:30:54;97198.55;;;40.21;11.12
41306;BME280;27051;50.376;19.152;2024-03-29T12:33:22;97200.55;;;40.30;10.79
41306;BME280;27051;50.376;19.152;2024-03-29T12:35:51;97200.06;;;40.51;10.52
41306;BME280;27051;50.376;19.152;2024-03-29T12:38:19;97197.56;;;40.80;10.85
41306;BME280;27051;50.376;19.152;2024-03-29T12:40:48;97197.73;;;41.17;10.76
41306;BME280;27051;50.376;19.152;2024-03-29T12:43:21;97195.48;;;41.56;10.87
41306;BME280;27051;50.376;19.152;2024-03-29T12:45:49;97188.40;;;42.41;10.84
41306;BME280;27051;50.376;19.152;2024-03-29T12:48:18;97178.56;;;43.27;10.35
41306;BME280;27051;50.376;19.152;2024-03-29T12:50:46;97169.95;;;43.60;10.12
41306;BME280;27051;50.376;19.152;2024-03-29T12:53:14;97172.00;;;43.72;9.78
41306;BME280;27051;50.376;19.152;2024-03-29T12:55:43;97179.96;;;43.52;9.72
41306;BME280;27051;50.376;19.152;2024-03-29T12:58:11;97186.02;;;43.21;9.54
41306;BME280;27051;50.376;19.152;2024-03-29T13:00:39;97177.42;;;43.67;10.16
41306;BME280;27051;50.376;19.152;2024-03-29T13:03:07;97167.31;;;44.33;9.99
41306;BME280;27051;50.376;19.152;2024-03-29T13:05:36;97157.72;;;44.74;9.69
41306;BME280;27051;50.376;19.152;2024-03-29T13:08:03;97151.55;;;45.20;9.79
41306;BME280;27051;50.376;19.152;2024-03-29T13:10:31;97161.42;;;45.62;9.18
41306;BME280;27051;50.376;19.152;2024-03-29T13:12:58;97158.27;;;45.45;9.09
41306;BME280;27051;50.376;19.152;2024-03-29T13:15:26;97163.11;;;45.31;8.97
41306;BME280;27051;50.376;19.152;2024-03-29T13:17:55;97161.39;;;44.85;9.02
41306;BME280;27051;50.376;19.152;2024-03-29T13:20:23;97162.55;;;44.78;8.98
41306;BME280;27051;50.376;19.152;2024-03-29T13:22:50;97162.43;;;44.69;9.27
41306;BME280;27051;50.376;19.152;2024-03-29T13:25:19;97163.56;;;45.12;8.85
41306;BME280;27051;50.376;19.152;2024-03-29T13:27:51;97158.19;;;44.69;8.75
41306;BME280;27051;50.376;19.152;2024-03-29T13:30:18;97151.13;;;44.51;9.20
41306;BME280;27051;50.376;19.152;2024-03-29T13:32:45;97149.39;;;44.82;9.26
41306;BME280;27051;50.376;19.152;2024-03-29T13:35:12;97157.23;;;44.44;8.81
41306;BME280;27051;50.376;19.152;2024-03-29T13:37:40;97150.01;;;43.64;9.05
41306;BME280;27051;50.376;19.152;2024-03-29T13:40:07;97154.38;;;43.09;9.55
41306;BME280;27051;50.376;19.152;2024-03-29T13:42:36;97155.09;;;42.92;9.54
41306;BME280;27051;50.376;19.152;2024-03-29T13:45:06;97143.54;;;42.87;9.68
41306;BME280;27051;50.376;19.152;2024-03-29T13:47:34;97139.40;;;42.79;10.11
41306;BME280;27051;50.376;19.152;2024-03-29T13:50:02;97130.17;;;42.73;9.82
41306;BME280;27051;50.376;19.152;2024-03-29T13:52:29;97126.98;;;42.88;10.20
41306;BME280;27051;50.376;19.152;2024-03-29T13:54:56;97132.30;;;42.98;9.88
41306;BME280;27051;50.376;19.152;2024-03-29T13:57:23;97133.06;;;43.22;10.00
41306;BME280;27051;50.376;19.152;2024-03-29T13:59:50;97130.88;;;42.25;10.32
41306;BME280;27051;50.376;19.152;2024-03-29T14:02:18;97133.55;;;40.91;10.71
41306;BME280;27051;50.376;19.152;2024-03-29T14:04:46;97137.08;;;40.01;11.06
41306;BME280;27051;50.376;19.152;2024-03-29T14:07:14;97142.52;;;39.28;11.03
41306;BME280;27051;50.376;19.152;2024-03-29T14:09:41;97137.17;;;38.02;11.43
41306;BME280;27051;50.376;19.152;2024-03-29T14:12:08;97136.00;;;37.47;11.75
41306;BME280;27051;50.376;19.152;2024-03-29T14:14:36;97141.33;;;37.17;12.06
41306;BME280;27051;50.376;19.152;2024-03-29T14:17:03;97147.19;;;37.30;12.20
41306;BME280;27051;50.376;19.152;2024-03-29T14:19:30;97146.75;;;36.34;12.50
41306;BME280;27051;50.376;19.152;2024-03-29T14:21:57;97142.30;;;34.59;12.93
41306;BME280;27051;50.376;19.152;2024-03-29T14:24:24;97138.28;;;32.88;13.63
41306;BME280;27051;50.376;19.152;2024-03-29T14:26:51;97137.02;;;32.05;14.24
41306;BME280;27051;50.376;19.152;2024-03-29T14:29:18;97141.91;;;32.19;14.50
41306;BME280;27051;50.376;19.152;2024-03-29T14:31:45;97148.48;;;32.37;15.04
41306;BME280;27051;50.376;19.152;2024-03-29T14:34:12;97149.00;;;32.30;14.79
41306;BME280;27051;50.376;19.152;2024-03-29T14:36:39;97147.04;;;32.82;15.16
41306;BME280;27051;50.376;19.152;2024-03-29T14:39:05;97142.64;;;33.53;14.88
41306;BME280;27051;50.376;19.152;2024-03-29T14:41:32;97138.80;;;33.81;14.83
41306;BME280;27051;50.376;19.152;2024-03-29T14:43:59;97138.71;;;33.96;14.42
41306;BME280;27051;50.376;19.152;2024-03-29T14:46:26;97139.67;;;34.19;14.38
41306;BME280;27051;50.376;19.152;2024-03-29T14:48:53;97139.13;;;33.50;14.65
41306;BME280;27051;50.376;19.152;2024-03-29T14:51:20;97147.08;;;32.66;15.26
41306;BME280;27051;50.376;19.152;2024-03-29T14:53:47;97152.14;;;32.23;15.49
41306;BME280;27051;50.376;19.152;2024-03-29T14:56:13;97149.35;;;31.78;15.55
41306;BME280;27051;50.376;19.152;2024-03-29T14:58:40;97144.02;;;31.05;16.25
41306;BME280;27051;50.376;19.152;2024-03-29T15:01:07;97147.34;;;30.12;16.80
41306;BME280;27051;50.376;19.152;2024-03-29T15:03:34;97145.16;;;29.26;17.44
41306;BME280;27051;50.376;19.152;2024-03-29T15:06:01;97151.64;;;28.17;18.06
41306;BME280;27051;50.376;19.152;2024-03-29T15:08:28;97151.44;;;27.29;18.59
41306;BME280;27051;50.376;19.152;2024-03-29T15:11:01;97157.36;;;26.64;19.21
41306;BME280;27051;50.376;19.152;2024-03-29T15:13:32;97158.95;;;26.06;19.75
41306;BME280;27051;50.376;19.152;2024-03-29T15:15:59;97165.73;;;25.49;20.01
41306;BME280;27051;50.376;19.152;2024-03-29T15:18:27;97167.90;;;24.96;20.98
41306;BME280;27051;50.376;19.152;2024-03-29T15:21:12;97179.57;;;24.27;21.41
41306;BME280;27051;50.376;19.152;2024-03-29T15:24:00;97184.65;;;23.58;22.37
41306;BME280;27051;50.376;19.152;2024-03-29T15:26:47;97180.59;;;23.08;22.38
41306;BME280;27051;50.376;19.152;2024-03-29T15:29:41;97179.61;;;22.73;23.00
41306;BME280;27051;50.376;19.152;2024-03-29T15:32:11;97170.91;;;22.40;23.59
41306;BME280;27051;50.376;19.152;2024-03-29T15:34:52;97165.25;;;22.15;23.80
41306;BME280;27051;50.376;19.152;2024-03-29T15:40:36;97168.17;;;21.56;24.72
41306;BME280;27051;50.376;19.152;2024-03-29T15:43:18;97176.60;;;21.28;25.65
41306;BME280;27051;50.376;19.152;2024-03-29T15:46:10;97175.49;;;20.99;25.77
41306;BME280;27051;50.376;19.152;2024-03-29T15:48:59;97174.76;;;20.79;26.32
41306;BME280;27051;50.376;19.152;2024-03-29T15:54:46;97167.67;;;20.39;26.84
41306;BME280;27051;50.376;19.152;2024-03-29T15:57:15;97165.46;;;20.28;27.09
41306;BME280;27051;50.376;19.152;2024-03-29T16:00:03;97166.63;;;20.21;27.67
41306;BME280;27051;50.376;19.152;2024-03-29T16:03:01;97166.33;;;20.13;28.03
41306;BME280;27051;50.376;19.152;2024-03-29T16:05:53;97167.83;;;19.98;28.53
41306;BME280;27051;50.376;19.152;2024-03-29T16:08:46;97167.98;;;19.85;28.64